Annapolis, MO

8:57 AM CST on November 24, 2014 (GMT -0600)
Knob Lick | Change Station
CLOSE
Current Station
Personal Weather Station
Location: Farmington, MO
Elevation: 1014 ft
Nearby Weather Stations

Elev 1014 ft 37.68 °N, 90.38 °W | Updated 2 minutes ago

Overcast
Overcast
40.1 °F
Feels Like 38 °F
N
3.8
Wind Variable Wind from West

Today
High -- | Low -- °F
--% Chance of Precip.
Yesterday
High -- | Low -- °F
Precip. -- in
6:51 AM 4:46 PM
Waxing Crescent, 5% visible
Pressure 29.64 in
Visibility 10.0 miles
Clouds Overcast 2400 ft
Windchill 38 °F
Dew Point 34 °F
Humidity 79%
Rainfall 0.07 in
Snow Depth Not available.
UV 0 out of 12
Pollen 3.30 out of 12
Air Quality Not available.
Flu Activity Not available.
METAR KFAM 241415Z AUTO 23010G21KT 10SM OVC024 05/00 A2964 RMK AO1

More Conditions Fewer Conditions

Pressure 29.64 in
Visibility 10.0 miles
Clouds Overcast 2400 ft
Windchill 38 °F
Dew Point 34 °F
Humidity 79%
Rainfall 0.07 in
Snow Depth Not available.
UV 0 out of 12
Pollen 3.30 out of 12
Air Quality Not available.
Flu Activity Not available.
METAR KFAM 241415Z AUTO 23010G21KT 10SM OVC024 05/00 A2964 RMK AO1

More Conditions Fewer Conditions

10-Day Weather Forecast

Almanac

Astronomy

Nov. 24, 2014 Rise Set
Actual Time
Civil Twilight
Nautical Twilight
Astronomical Twilight
Moon
Length of Visible Light
Length of Day
Tomorrow will be .
, % of the Moon is Illuminated

Today's Extremes

State Highs State Lows

Community

WunderPhotos

Upload Photos

1,773,353 photos uploaded!

WunderBlogs® & News

Nearby

Air Quality

  Air Quality AQ Index Pollutant
Not available.

Snow Depth

Station Depth Elevation

Earthquake Activity

City Distance Mag. Time & Date
Minimum magnitude displayed is 2.5.

Coastal Water Temperatures

Place Temperature

Nearby Weather Stations